»·PEaware :: N461D KSBP-KSBA

N461D :: KSBP-KSBA

FLIGHT INFORMATION

Flight Status: Arrived
Operator: Privately registered:
United States
More flights under this callsign
Pilot: Daniel R. (17770)
Aircraft: CESSNA 172 SKYHAWK
(C172)
More flights by this aircraft type
Origin: KSBP San Luis Co Regl
United States
Destination: KSBA Santa Barbara Mun
United States
More flights between these airports :: More routes between these airports
Route: +RW29 CREPE3 MQO V27 GVO
File this flight plan on PilotEdge
Remarks: Sample flight plan
Altitude:
(Current/Filed)
8,000ft
Speed:
(Current/Filed)
115kts
Departed: 07-Jan-18 04:27 PM
Arrived: 07-Jan-18 05:20 PM
Distance/Time
Traveled:
62nm/0:53
Distance/Time
To Go:
Arrived

Flight Plot

Page will automatically refresh every two minutes.

Flight plan parsing failed; only flown route is shown


Map Options




Map Legend


Flown Route
Filed Route
Departure Airport
Arrival Airport
Navaid (VOR, NDB)
Fix

Horizontal Profiles

Position Reports

Time Latitude Longitude Heading Altitude Ground
Speed
07-Jan-18 16:12 35.239073 -120.641582 350 215ft 0kts
07-Jan-18 16:13 35.239073 -120.641582 350 215ft 0kts
07-Jan-18 16:14 35.239073 -120.641582 350 215ft 0kts
07-Jan-18 16:15 35.239073 -120.641582 350 215ft 0kts
07-Jan-18 16:16 35.239073 -120.641582 350 215ft 0kts
07-Jan-18 16:17 35.239073 -120.641582 350 215ft 0kts
07-Jan-18 16:18 35.239073 -120.641582 350 215ft 0kts
07-Jan-18 16:19 35.239073 -120.641582 350 215ft 0kts
07-Jan-18 16:20 35.239073 -120.641582 350 215ft 0kts
07-Jan-18 16:21 35.239073 -120.641582 350 215ft 0kts
07-Jan-18 16:22 35.239073 -120.641582 350 215ft 0kts
07-Jan-18 16:23 35.239073 -120.641582 350 215ft 0kts
07-Jan-18 16:24 35.239081 -120.641597 276 215ft 0kts
07-Jan-18 16:25 35.239018 -120.641670 214 215ft 0kts
07-Jan-18 16:26 35.238756 -120.641672 152 215ft 9kts
07-Jan-18 16:27 35.235417 -120.635736 125 215ft 26kts
07-Jan-18 16:28 35.233224 -120.632083 302 215ft 0kts
07-Jan-18 16:29 35.233224 -120.632083 302 215ft 0kts
07-Jan-18 16:30 35.233145 -120.632159 281 215ft 0kts
07-Jan-18 16:31 35.233145 -120.632159 281 215ft 0kts
07-Jan-18 16:32 35.233179 -120.632278 288 215ft 1kts
07-Jan-18 16:33 35.238470 -120.643100 302 413ft 84kts
07-Jan-18 16:34 35.252585 -120.670139 302 1099ft 98kts
07-Jan-18 16:35 35.267946 -120.697820 303 1801ft 98kts
07-Jan-18 16:36 35.283388 -120.725039 303 2503ft 96kts
07-Jan-18 16:37 35.298609 -120.751755 303 3206ft 94kts
07-Jan-18 16:38 35.313665 -120.778141 302 3907ft 95kts
07-Jan-18 16:39 35.329610 -120.806012 302 4438ft 103kts
07-Jan-18 16:40 35.346496 -120.835481 302 4874ft 109kts
07-Jan-18 16:41 35.354677 -120.867428 225 5002ft 105kts
07-Jan-18 16:42 35.331026 -120.886490 216 5003ft 99kts
07-Jan-18 16:43 35.307586 -120.904014 215 5003ft 98kts
07-Jan-18 16:44 35.284225 -120.903639 109 5004ft 109kts
07-Jan-18 16:45 35.277579 -120.867232 103 5003ft 110kts
07-Jan-18 16:46 35.269776 -120.830869 105 5003ft 110kts
07-Jan-18 16:47 35.260995 -120.792335 105 5004ft 123kts
07-Jan-18 16:48 35.247430 -120.754872 142 5003ft 122kts
07-Jan-18 16:49 35.220819 -120.728939 144 5003ft 122kts
07-Jan-18 16:50 35.193844 -120.703423 144 5003ft 123kts
07-Jan-18 16:51 35.167107 -120.678341 144 5004ft 123kts
07-Jan-18 16:52 35.139941 -120.652935 145 5004ft 123kts
07-Jan-18 16:53 35.112818 -120.627606 145 5005ft 122kts
07-Jan-18 16:54 35.085681 -120.602278 145 5007ft 123kts
07-Jan-18 16:55 35.058471 -120.576954 145 5008ft 122kts
07-Jan-18 16:56 35.031289 -120.551645 145 5010ft 123kts
07-Jan-18 16:57 35.004020 -120.526281 145 5012ft 123kts
07-Jan-18 16:58 34.976895 -120.501077 145 5013ft 122kts
07-Jan-18 16:59 34.949796 -120.475897 145 5013ft 122kts
07-Jan-18 17:00 34.922583 -120.450624 144 5013ft 123kts
07-Jan-18 17:01 34.895583 -120.425568 144 5013ft 122kts
07-Jan-18 17:02 34.868579 -120.400544 144 5012ft 122kts
07-Jan-18 17:03 34.841703 -120.375664 145 5010ft 121kts
07-Jan-18 17:04 34.814822 -120.350826 145 5008ft 120kts
07-Jan-18 17:05 34.792831 -120.330510 146 5004ft 119kts
07-Jan-18 17:06 34.762012 -120.302047 146 5000ft 119kts
07-Jan-18 17:07 34.739988 -120.281927 146 4997ft 118kts
07-Jan-18 17:08 34.709294 -120.254032 146 4994ft 117kts
07-Jan-18 17:09 34.687598 -120.234050 145 4993ft 117kts
07-Jan-18 17:10 34.661337 -120.210305 146 4993ft 117kts
07-Jan-18 17:11 34.631008 -120.182497 146 4993ft 117kts
07-Jan-18 17:12 34.609323 -120.162568 146 4993ft 117kts
07-Jan-18 17:13 34.583235 -120.138684 150 4992ft 117kts
07-Jan-18 17:14 34.543278 -120.128485 172 4414ft 130kts
07-Jan-18 17:15 34.513647 -120.122230 172 4039ft 127kts
07-Jan-18 17:16 34.480842 -120.115282 172 4003ft 115kts
07-Jan-18 17:17 34.449341 -120.108651 172 4003ft 114kts
07-Jan-18 17:18 34.428870 -120.081935 112 3744ft 124kts
07-Jan-18 17:19 34.423654 -120.041491 90 3044ft 122kts
07-Jan-18 17:20 34.423563 -120.000769 94 2338ft 114kts
07-Jan-18 17:21 34.424904 -119.960711 85 1748ft 108kts
07-Jan-18 17:22 34.426097 -119.932091 90 1305ft 67kts
07-Jan-18 17:23 34.426505 -119.908480 90 935ft 71kts
07-Jan-18 17:24 34.426946 -119.886390 90 575ft 66kts
07-Jan-18 17:25 34.427384 -119.862817 90 196ft 71kts
07-Jan-18 17:26 34.428438 -119.845559 63 17ft 0kts
07-Jan-18 17:27 34.428438 -119.845559 63 17ft 0kts
07-Jan-18 17:28 34.428582 -119.845239 61 17ft 12kts
07-Jan-18 17:29 34.430520 -119.842332 346 17ft 0kts
07-Jan-18 17:30 34.430531 -119.842409 197 17ft 0kts

Navigation Log

Ident Type
Flight plan parsing failed, navigation log unavailable